Time;durP1;ratioP1;P1;durP2;ratioP2;P2;SDS_P1;SDS_P2;PMS_P1;PMS_P2;Temp;Humidity;BMP_temperature;BMP_pressure;BME280_temperature;BME280_humidity;BME280_pressure;Samples;Min_cycle;Max_cycle;Signal;HPM_P1;HPM_P2
2022/05/04 00:00:27;;;;;;;3.47;2.57;;;9.90;99.90;;;;;;5037211;28;20535;-79
2022/05/04 00:02:53;;;;;;;3.87;2.60;;;9.90;99.90;;;;;;5038684;28;20190;-79
2022/05/04 00:05:19;;;;;;;4.00;2.40;;;9.80;99.90;;;;;;5037931;28;20257;-79
2022/05/04 00:07:45;;;;;;;3.03;2.73;;;9.80;99.90;;;;;;5040849;28;20201;-79
2022/05/04 00:10:11;;;;;;;2.87;2.30;;;9.80;99.90;;;;;;5040952;28;20174;-79
2022/05/04 00:12:36;;;;;;;2.77;2.20;;;9.80;99.90;;;;;;5040802;28;20201;-79
2022/05/04 00:15:03;;;;;;;3.43;2.63;;;9.70;99.90;;;;;;5040677;28;20197;-79
2022/05/04 00:17:28;;;;;;;4.30;2.60;;;9.70;99.90;;;;;;5042915;28;20257;-79
2022/05/04 00:19:54;;;;;;;5.33;2.87;;;9.70;99.90;;;;;;5044255;28;20225;-79
2022/05/04 00:22:21;;;;;;;3.03;2.73;;;9.70;99.90;;;;;;5042870;28;20303;-79
2022/05/04 00:24:47;;;;;;;3.10;2.60;;;9.60;99.90;;;;;;5045239;28;20176;-79
2022/05/04 00:27:15;;;;;;;3.27;2.97;;;9.60;99.90;;;;;;5043185;28;20182;-79
2022/05/04 00:29:42;;;;;;;4.33;2.80;;;9.50;99.90;;;;;;5044232;28;20168;-79
2022/05/04 00:32:10;;;;;;;3.40;2.67;;;9.50;99.90;;;;;;5043454;28;20292;-79
2022/05/04 00:34:36;;;;;;;2.40;2.20;;;9.50;99.90;;;;;;5046146;28;20262;-79
2022/05/04 00:37:01;;;;;;;3.03;2.40;;;9.40;99.90;;;;;;5050902;28;20206;-78
2022/05/04 00:39:28;;;;;;;2.70;2.50;;;9.40;99.90;;;;;;5057503;28;20228;-78
2022/05/04 00:41:54;;;;;;;3.40;2.40;;;9.40;99.90;;;;;;5057558;28;20209;-79
2022/05/04 00:44:20;;;;;;;2.97;2.67;;;9.40;99.90;;;;;;5047859;28;20533;-79
2022/05/04 00:46:45;;;;;;;2.77;2.57;;;9.30;99.90;;;;;;5044108;28;20176;-79
2022/05/04 00:49:11;;;;;;;2.93;2.57;;;9.30;99.90;;;;;;5042996;28;20168;-79
2022/05/04 00:51:37;;;;;;;2.67;2.40;;;9.20;99.90;;;;;;5043531;28;20172;-79
2022/05/04 00:54:04;;;;;;;2.90;2.20;;;9.20;99.90;;;;;;5042168;28;20180;-79
2022/05/04 00:56:30;;;;;;;2.60;2.33;;;9.20;99.90;;;;;;5042207;28;20518;-79
2022/05/04 00:58:57;;;;;;;5.23;3.07;;;9.10;99.90;;;;;;5042656;28;20231;-79
2022/05/04 01:01:23;;;;;;;2.77;2.53;;;9.20;99.90;;;;;;5039979;28;20212;-79
2022/05/04 01:03:49;;;;;;;3.47;2.70;;;9.10;99.90;;;;;;5041383;28;20267;-79
2022/05/04 01:06:15;;;;;;;2.97;2.63;;;9.10;99.90;;;;;;5039470;28;20205;-79
2022/05/04 01:08:40;;;;;;;3.93;2.70;;;9.10;99.90;;;;;;5040661;28;20242;-79
2022/05/04 01:11:06;;;;;;;4.07;2.77;;;9.10;99.90;;;;;;5040791;28;20169;-79
2022/05/04 01:13:32;;;;;;;4.20;2.70;;;9.10;99.90;;;;;;5039327;28;20202;-79
2022/05/04 01:15:57;;;;;;;5.07;3.30;;;9.10;99.90;;;;;;5040386;28;20608;-79
2022/05/04 01:18:23;;;;;;;3.10;2.80;;;9.00;99.90;;;;;;5041514;28;20183;-79
2022/05/04 01:20:49;;;;;;;3.90;2.40;;;8.90;99.90;;;;;;5039720;28;20238;-79
2022/05/04 01:23:16;;;;;;;3.77;2.87;;;9.00;99.90;;;;;;5039762;28;20545;-79
2022/05/04 01:25:42;;;;;;;3.17;2.50;;;9.00;99.90;;;;;;5039455;28;20249;-78
2022/05/04 01:28:08;;;;;;;2.80;2.40;;;8.90;99.90;;;;;;5035486;28;20265;-79
2022/05/04 01:30:34;;;;;;;2.60;2.40;;;8.90;99.90;;;;;;5036682;28;20250;-79
2022/05/04 01:33:00;;;;;;;3.77;2.53;;;8.90;99.90;;;;;;5034660;28;20196;-78
2022/05/04 01:35:26;;;;;;;4.83;2.70;;;8.90;99.90;;;;;;5035625;28;20637;-79
2022/05/04 01:37:52;;;;;;;2.77;2.57;;;8.90;99.90;;;;;;5035363;28;20199;-79
2022/05/04 01:40:18;;;;;;;3.90;2.40;;;8.90;99.90;;;;;;5036306;28;20555;-79
2022/05/04 01:42:43;;;;;;;2.50;2.30;;;8.90;99.90;;;;;;5039474;28;20217;-79
2022/05/04 01:45:09;;;;;;;3.93;2.70;;;8.90;99.90;;;;;;5040688;28;20223;-79
2022/05/04 01:47:36;;;;;;;3.03;2.60;;;8.90;99.90;;;;;;5039346;28;20536;-79
2022/05/04 01:50:03;;;;;;;3.90;2.80;;;8.80;99.90;;;;;;5038648;28;20168;-79
2022/05/04 01:52:29;;;;;;;3.57;2.90;;;8.80;99.90;;;;;;5036900;28;20203;-79
2022/05/04 01:54:55;;;;;;;3.80;2.90;;;8.80;99.90;;;;;;5038041;28;20649;-79
2022/05/04 01:57:21;;;;;;;4.77;2.97;;;8.80;99.90;;;;;;5038611;28;20184;-79
2022/05/04 01:59:47;;;;;;;3.20;2.83;;;8.70;99.90;;;;;;5037034;28;20179;-79
2022/05/04 02:02:13;;;;;;;4.13;2.90;;;8.70;99.90;;;;;;5039094;28;20298;-79
2022/05/04 02:04:39;;;;;;;3.87;3.07;;;8.70;99.90;;;;;;5037507;28;20202;-79
2022/05/04 02:07:08;;;;;;;4.33;3.00;;;8.70;99.90;;;;;;5039026;28;20199;-79
2022/05/04 02:09:36;;;;;;;3.70;2.97;;;8.70;99.90;;;;;;5039732;28;20245;-79
2022/05/04 02:12:03;;;;;;;4.70;2.93;;;8.60;99.90;;;;;;5038822;28;20556;-79
2022/05/04 02:14:31;;;;;;;3.93;2.80;;;8.60;99.90;;;;;;5041276;28;20175;-79
2022/05/04 02:16:57;;;;;;;2.93;2.63;;;8.60;99.90;;;;;;5037555;28;20268;-79
2022/05/04 02:19:22;;;;;;;4.00;2.90;;;8.50;99.90;;;;;;5038733;28;20220;-79
2022/05/04 02:21:48;;;;;;;3.57;3.07;;;8.50;99.90;;;;;;5037826;28;20290;-79
2022/05/04 02:24:13;;;;;;;3.93;3.07;;;8.50;99.90;;;;;;5040873;28;20184;-79
2022/05/04 02:26:39;;;;;;;3.90;3.10;;;8.40;99.90;;;;;;5047967;28;20182;-78
2022/05/04 02:29:05;;;;;;;4.33;2.80;;;8.40;99.90;;;;;;5052464;28;20159;-78
2022/05/04 02:31:30;;;;;;;3.70;2.63;;;8.40;99.90;;;;;;5049426;28;20183;-78
2022/05/04 02:33:56;;;;;;;3.53;2.80;;;8.40;99.90;;;;;;5038582;28;20217;-79
2022/05/04 02:39:06;;;;;;;3.77;2.60;;;8.30;99.90;;;;;;5037387;28;20246;-79
2022/05/04 02:41:32;;;;;;;4.23;2.30;;;8.30;99.90;;;;;;5037822;28;20197;-79
2022/05/04 02:43:59;;;;;;;3.17;2.23;;;8.20;99.90;;;;;;5037503;28;20278;-79
2022/05/04 02:46:28;;;;;;;3.17;2.57;;;8.30;99.90;;;;;;5036295;28;20636;-79
2022/05/04 02:48:54;;;;;;;2.90;2.40;;;8.20;99.90;;;;;;5037972;28;20199;-79
2022/05/04 02:51:20;;;;;;;2.40;2.07;;;8.20;99.90;;;;;;5038068;28;20628;-78
2022/05/04 02:53:45;;;;;;;2.13;1.93;;;8.20;99.90;;;;;;5036760;28;20202;-78
2022/05/04 02:56:13;;;;;;;2.03;1.83;;;8.20;99.90;;;;;;5038902;28;20186;-79
2022/05/04 02:58:39;;;;;;;3.10;2.57;;;8.20;99.90;;;;;;5038194;28;20178;-79
2022/05/04 03:02:26;;;;;;;4.20;2.23;;;8.20;99.90;;;;;;5036750;28;20682;-79
2022/05/04 03:03:55;;;;;;;2.57;2.37;;;8.20;99.90;;;;;;5038042;28;20217;-79
2022/05/04 03:06:21;;;;;;;2.50;2.30;;;8.20;99.90;;;;;;5038249;28;20206;-79
2022/05/04 03:08:46;;;;;;;3.07;2.83;;;8.20;99.90;;;;;;5038153;28;20254;-79
2022/05/04 03:13:56;;;;;;;3.53;2.90;;;8.20;99.90;;;;;;5038598;28;20174;-79
2022/05/04 03:16:22;;;;;;;3.03;2.77;;;8.20;99.90;;;;;;5038767;28;20179;-79
2022/05/04 03:18:47;;;;;;;2.50;2.30;;;8.20;99.90;;;;;;5036747;28;20184;-79
2022/05/04 03:21:13;;;;;;;4.63;3.00;;;8.10;99.90;;;;;;5038016;28;20198;-79
2022/05/04 03:23:38;;;;;;;2.57;2.37;;;8.10;99.90;;;;;;5038126;28;20199;-79
2022/05/04 03:26:08;;;;;;;5.73;2.80;;;8.10;99.90;;;;;;5037157;28;20184;-79
2022/05/04 03:28:33;;;;;;;2.63;2.43;;;8.10;99.90;;;;;;5038613;28;20250;-79
2022/05/04 03:30:59;;;;;;;3.00;2.70;;;8.10;99.90;;;;;;5038442;28;20202;-79
2022/05/04 03:33:25;;;;;;;3.20;2.60;;;8.10;99.90;;;;;;5038735;28;20274;-79
2022/05/04 03:35:51;;;;;;;3.07;2.73;;;8.10;99.90;;;;;;5038709;28;20255;-79
2022/05/04 03:38:17;;;;;;;2.90;2.60;;;8.10;99.90;;;;;;5036740;28;20176;-79
2022/05/04 03:40:43;;;;;;;3.00;2.70;;;8.10;99.90;;;;;;5037593;28;20583;-79
2022/05/04 03:43:08;;;;;;;3.10;2.33;;;8.10;99.90;;;;;;5037650;28;20195;-79
2022/05/04 03:45:34;;;;;;;3.50;2.87;;;8.10;99.90;;;;;;5037602;28;20691;-79
2022/05/04 03:47:59;;;;;;;2.77;2.53;;;8.20;99.90;;;;;;5036198;28;20184;-79
2022/05/04 03:50:25;;;;;;;3.20;2.47;;;8.20;99.90;;;;;;5038628;28;20540;-79
2022/05/04 03:52:51;;;;;;;4.53;3.30;;;8.10;99.90;;;;;;5041512;28;20198;-79
2022/05/04 03:55:16;;;;;;;4.77;2.50;;;8.20;99.90;;;;;;5041188;28;20230;-78
2022/05/04 03:57:42;;;;;;;5.37;3.10;;;8.20;99.90;;;;;;5040957;28;20176;-79
2022/05/04 04:00:09;;;;;;;5.80;2.53;;;8.20;99.90;;;;;;5041034;28;20691;-78
2022/05/04 04:02:35;;;;;;;3.13;2.70;;;8.30;99.90;;;;;;5039758;28;20220;-79
2022/05/04 04:05:01;;;;;;;3.43;2.90;;;8.30;99.90;;;;;;5039674;28;20174;-79
2022/05/04 04:07:27;;;;;;;3.20;2.90;;;8.30;99.90;;;;;;5039566;28;20176;-79
2022/05/04 04:09:53;;;;;;;2.93;2.50;;;8.20;99.90;;;;;;5041054;28;20187;-78
2022/05/04 04:12:18;;;;;;;5.00;2.87;;;8.20;99.90;;;;;;5040229;28;20207;-78
2022/05/04 04:14:44;;;;;;;2.63;2.43;;;8.30;99.90;;;;;;5038838;28;20183;-79
2022/05/04 04:17:09;;;;;;;4.63;2.90;;;8.30;99.90;;;;;;5040370;28;20182;-78
2022/05/04 04:19:35;;;;;;;3.40;2.40;;;8.30;99.90;;;;;;5040399;28;20654;-79
2022/05/04 04:22:01;;;;;;;2.77;2.53;;;8.30;99.90;;;;;;5040120;28;20692;-79
2022/05/04 04:24:27;;;;;;;2.50;2.30;;;8.30;99.90;;;;;;5040449;28;20200;-79
2022/05/04 04:26:53;;;;;;;2.60;2.40;;;8.30;99.90;;;;;;5038535;28;20224;-79
2022/05/04 04:29:19;;;;;;;2.93;2.40;;;8.30;99.90;;;;;;5040063;28;20179;-79
2022/05/04 04:31:45;;;;;;;3.37;2.30;;;8.40;99.90;;;;;;5039591;28;20179;-79
2022/05/04 04:34:10;;;;;;;3.80;2.20;;;8.40;99.90;;;;;;5037535;28;20182;-79
2022/05/04 04:36:36;;;;;;;3.07;2.30;;;8.40;99.90;;;;;;5037826;28;20176;-79
2022/05/04 04:39:03;;;;;;;4.13;2.30;;;8.50;99.90;;;;;;5035924;28;20257;-79
2022/05/04 04:41:30;;;;;;;3.33;2.17;;;8.50;99.90;;;;;;5035313;28;20200;-79
2022/05/04 04:43:55;;;;;;;2.37;1.97;;;8.50;99.90;;;;;;5036370;28;20199;-79
2022/05/04 04:46:21;;;;;;;5.00;2.53;;;8.60;99.90;;;;;;5035999;28;20176;-79
2022/05/04 04:48:47;;;;;;;3.13;2.60;;;8.60;99.90;;;;;;5039005;28;20208;-79
2022/05/04 04:51:13;;;;;;;2.50;2.30;;;8.60;99.90;;;;;;5039552;28;20728;-79
2022/05/04 04:53:38;;;;;;;4.57;2.23;;;8.60;99.90;;;;;;5041039;28;20200;-78
2022/05/04 04:56:05;;;;;;;3.20;2.83;;;8.60;99.90;;;;;;5039453;28;20178;-81
2022/05/04 04:58:30;;;;;;;4.30;2.17;;;8.60;99.90;;;;;;5039928;28;20171;-79
2022/05/04 05:00:57;;;;;;;3.13;2.60;;;8.60;99.90;;;;;;5040386;28;20244;-79
2022/05/04 05:03:22;;;;;;;2.30;2.10;;;8.70;99.90;;;;;;5037751;28;20195;-79
2022/05/04 05:05:48;;;;;;;3.17;2.83;;;8.70;99.90;;;;;;5037698;28;20206;-79
2022/05/04 05:08:13;;;;;;;2.47;2.27;;;8.70;99.90;;;;;;5038434;28;20240;-79
2022/05/04 05:10:40;;;;;;;2.70;2.20;;;8.70;99.90;;;;;;5040365;28;20190;-79
2022/05/04 05:13:06;;;;;;;2.50;2.30;;;8.80;99.90;;;;;;5040476;28;20195;-79
2022/05/04 05:18:20;;;;;;;2.73;2.23;;;8.90;99.90;;;;;;5040873;28;20219;-79
2022/05/04 05:20:46;;;;;;;2.87;2.30;;;8.90;99.90;;;;;;5040141;28;20571;-79
2022/05/04 05:23:11;;;;;;;3.47;2.50;;;8.90;99.90;;;;;;5039464;28;20248;-79
2022/05/04 05:25:37;;;;;;;3.80;2.60;;;8.90;99.90;;;;;;5040898;28;20232;-79
2022/05/04 05:28:03;;;;;;;2.97;2.33;;;9.00;99.90;;;;;;5041035;28;20173;-80
2022/05/04 05:30:28;;;;;;;2.87;2.40;;;9.00;99.90;;;;;;5038742;28;20201;-79
2022/05/04 05:32:54;;;;;;;5.73;3.07;;;9.00;99.90;;;;;;5038265;28;20673;-79
2022/05/04 05:35:20;;;;;;;3.13;2.73;;;9.10;99.90;;;;;;5038164;28;20179;-79
2022/05/04 05:37:46;;;;;;;5.63;2.77;;;9.10;99.90;;;;;;5037903;28;20203;-79
2022/05/04 05:40:12;;;;;;;2.30;1.97;;;9.10;99.90;;;;;;5039120;28;20579;-79
2022/05/04 05:42:38;;;;;;;7.03;2.67;;;9.10;99.90;;;;;;5037470;28;20690;-79
2022/05/04 05:45:04;;;;;;;6.37;2.50;;;9.10;99.90;;;;;;5039000;28;20318;-79
2022/05/04 05:47:29;;;;;;;4.47;2.07;;;9.20;99.90;;;;;;5039143;28;20646;-79
2022/05/04 05:49:55;;;;;;;6.63;3.07;;;9.30;99.90;;;;;;5039246;28;20634;-79
2022/05/04 05:52:21;;;;;;;8.10;2.70;;;9.30;99.90;;;;;;5038596;28;20221;-79
2022/05/04 05:54:46;;;;;;;3.77;2.47;;;9.40;99.90;;;;;;5038542;28;20619;-78
2022/05/04 05:57:12;;;;;;;2.80;2.40;;;9.50;99.90;;;;;;5037472;28;20211;-79
2022/05/04 05:59:38;;;;;;;3.40;2.60;;;9.50;99.90;;;;;;5037651;28;20567;-79
2022/05/04 06:02:03;;;;;;;2.83;2.57;;;9.50;99.90;;;;;;5038654;28;20683;-79
2022/05/04 06:04:29;;;;;;;3.80;2.77;;;9.50;99.90;;;;;;5038962;28;20181;-79
2022/05/04 06:06:55;;;;;;;3.70;2.47;;;9.60;99.90;;;;;;5041863;28;20535;-78
2022/05/04 06:09:20;;;;;;;4.90;2.80;;;9.60;99.90;;;;;;5039373;28;20170;-79
2022/05/04 06:11:46;;;;;;;4.43;2.37;;;9.60;99.90;;;;;;5040276;28;20231;-79
2022/05/04 06:14:12;;;;;;;5.03;2.53;;;9.70;99.90;;;;;;5038691;28;20181;-78
2022/05/04 06:16:37;;;;;;;4.23;2.70;;;9.70;99.90;;;;;;5038102;28;20177;-79
2022/05/04 06:19:04;;;;;;;4.40;2.57;;;9.80;99.90;;;;;;5039028;28;20304;-78
2022/05/04 06:21:30;;;;;;;4.90;2.97;;;10.00;99.90;;;;;;5036501;28;20198;-79
2022/05/04 06:23:55;;;;;;;3.33;2.33;;;10.00;99.90;;;;;;5039288;28;20658;-79
2022/05/04 06:26:23;;;;;;;4.10;2.27;;;10.10;99.90;;;;;;5039680;28;20253;-79
2022/05/04 06:28:49;;;;;;;5.70;3.43;;;10.20;99.90;;;;;;5037857;28;20217;-79
2022/05/04 06:34:07;;;;;;;6.00;2.53;;;10.30;99.90;;;;;;5039753;28;20193;-79
2022/05/04 06:36:34;;;;;;;3.07;2.03;;;10.30;99.90;;;;;;5039488;28;20158;-79
2022/05/04 06:39:00;;;;;;;5.63;2.03;;;10.40;99.90;;;;;;5038060;28;20207;-78
2022/05/04 06:41:27;;;;;;;3.23;2.13;;;10.40;99.90;;;;;;5038067;28;20280;-79
2022/05/04 06:43:54;;;;;;;3.80;2.43;;;10.40;99.90;;;;;;5038874;28;20206;-79
2022/05/04 06:46:20;;;;;;;2.63;2.23;;;10.50;99.90;;;;;;5038828;28;20174;-79
2022/05/04 06:48:46;;;;;;;3.27;2.00;;;10.60;99.90;;;;;;5037190;28;20262;-79
2022/05/04 06:51:12;;;;;;;2.60;2.20;;;10.60;99.90;;;;;;5037551;28;20202;-79
2022/05/04 06:53:37;;;;;;;2.57;2.27;;;10.80;99.90;;;;;;5037888;28;20198;-78
2022/05/04 06:56:03;;;;;;;3.00;2.20;;;10.90;99.90;;;;;;5037458;28;20181;-79
2022/05/04 06:58:29;;;;;;;5.40;2.10;;;11.10;99.90;;;;;;5038344;28;20182;-79
2022/05/04 07:00:55;;;;;;;2.30;1.83;;;11.10;99.90;;;;;;5036129;28;20196;-79
2022/05/04 07:03:21;;;;;;;2.47;2.03;;;11.20;99.90;;;;;;5036353;28;20689;-79
2022/05/04 07:05:50;;;;;;;4.53;2.10;;;11.30;99.90;;;;;;5036550;28;20231;-79
2022/05/04 07:08:16;;;;;;;2.50;1.90;;;11.40;99.90;;;;;;5038621;28;20166;-79
2022/05/04 07:10:42;;;;;;;1.80;1.57;;;11.40;99.90;;;;;;5038042;28;20197;-79
2022/05/04 07:13:07;;;;;;;2.33;2.00;;;11.50;99.90;;;;;;5038473;28;20552;-79
2022/05/04 07:15:33;;;;;;;2.00;1.80;;;11.60;99.90;;;;;;5037098;28;20182;-78
2022/05/04 07:17:59;;;;;;;2.83;2.10;;;11.90;99.90;;;;;;5038752;28;20190;-78
2022/05/04 07:20:25;;;;;;;2.90;2.30;;;11.90;99.90;;;;;;5038470;28;20178;-79
2022/05/04 07:22:51;;;;;;;2.63;2.13;;;12.00;99.90;;;;;;5039000;28;20214;-79
2022/05/04 07:25:16;;;;;;;2.30;2.10;;;12.00;99.90;;;;;;5037852;28;20179;-79
2022/05/04 07:27:42;;;;;;;4.00;2.10;;;12.20;99.90;;;;;;5042054;28;20171;-79
2022/05/04 07:30:08;;;;;;;2.57;2.20;;;12.20;99.90;;;;;;5038791;28;20174;-79
2022/05/04 07:32:34;;;;;;;3.37;2.27;;;12.30;99.90;;;;;;5040249;28;20668;-79
2022/05/04 07:35:00;;;;;;;5.47;2.30;;;12.30;99.90;;;;;;5040040;28;20212;-79
2022/05/04 07:37:26;;;;;;;3.90;1.93;;;12.50;99.90;;;;;;5040633;28;20189;-79
2022/05/04 07:42:35;;;;;;;3.93;2.00;;;12.50;99.90;;;;;;5038789;28;20216;-79
2022/05/04 07:45:11;;;;;;;2.43;2.17;;;12.50;99.90;;;;;;5038069;28;20174;-79
2022/05/04 07:47:37;;;;;;;2.53;1.90;;;12.50;99.90;;;;;;5037443;28;20158;-79
2022/05/04 07:50:05;;;;;;;3.90;1.97;;;12.60;99.90;;;;;;5040022;28;20174;-80
2022/05/04 07:52:30;;;;;;;3.60;1.80;;;12.60;99.90;;;;;;5041417;28;20224;-79
2022/05/04 07:54:56;;;;;;;3.07;2.20;;;12.60;99.90;;;;;;5041827;28;20628;-79
2022/05/04 07:57:22;;;;;;;3.47;1.90;;;12.70;99.90;;;;;;5043431;28;20183;-79
2022/05/04 08:05:18;;;;;;;5.10;2.00;;;12.80;99.90;;;;;;5043919;28;20232;-79
2022/05/04 08:07:43;;;;;;;3.37;2.23;;;12.90;99.90;;;;;;5041960;28;20178;-79
2022/05/04 08:10:09;;;;;;;3.20;2.37;;;13.00;99.90;;;;;;5042710;28;20205;-79
2022/05/04 08:12:35;;;;;;;3.50;2.07;;;13.10;99.90;;;;;;5041425;28;20210;-80
2022/05/04 08:15:01;;;;;;;3.30;2.40;;;13.10;99.90;;;;;;5043513;28;20185;-79
2022/05/04 08:17:26;;;;;;;2.80;2.10;;;13.20;99.90;;;;;;5042421;28;20182;-80
2022/05/04 08:19:52;;;;;;;3.93;2.10;;;13.20;99.90;;;;;;5043140;28;20229;-79
2022/05/04 08:22:18;;;;;;;4.17;1.97;;;13.10;99.90;;;;;;5042731;28;20213;-80
2022/05/04 08:24:43;;;;;;;3.57;1.87;;;13.20;99.90;;;;;;5042719;28;20182;-79
2022/05/04 08:27:09;;;;;;;2.93;2.00;;;13.20;99.90;;;;;;5041886;28;20186;-80
2022/05/04 08:29:35;;;;;;;2.63;2.30;;;13.20;99.90;;;;;;5042736;28;20240;-79
2022/05/04 08:32:01;;;;;;;2.47;2.00;;;13.20;99.90;;;;;;5043412;28;20282;-79
2022/05/04 08:34:26;;;;;;;2.03;1.83;;;13.20;99.90;;;;;;5042558;28;20653;-80
2022/05/04 08:36:52;;;;;;;3.60;2.20;;;13.20;99.90;;;;;;5042925;28;20182;-79
2022/05/04 08:39:18;;;;;;;2.67;2.47;;;13.30;99.90;;;;;;5041902;28;20726;-79
2022/05/04 08:41:44;;;;;;;4.77;2.53;;;13.40;99.90;;;;;;5040585;28;20213;-79
2022/05/04 08:44:11;;;;;;;4.57;2.87;;;13.40;99.90;;;;;;5041093;28;20221;-79
2022/05/04 08:46:46;;;;;;;4.47;3.17;;;13.60;99.90;;;;;;5042175;28;20220;-79
2022/05/04 08:49:12;;;;;;;3.87;2.90;;;13.90;99.90;;;;;;5041445;28;20205;-78
2022/05/04 08:51:39;;;;;;;4.37;2.73;;;14.50;99.90;;;;;;5039883;28;20200;-79
2022/05/04 08:54:06;;;;;;;4.87;3.40;;;14.50;99.90;;;;;;5041625;28;20179;-79
2022/05/04 08:56:33;;;;;;;3.20;2.67;;;14.70;99.90;;;;;;5040077;28;20178;-79
2022/05/04 08:59:01;;;;;;;2.70;2.50;;;14.80;99.90;;;;;;5041791;28;20178;-79
2022/05/04 09:01:27;;;;;;;3.50;2.63;;;15.30;99.90;;;;;;5041129;28;20205;-80
2022/05/04 09:03:53;;;;;;;2.63;2.43;;;16.10;99.90;;;;;;5039723;28;20198;-79
2022/05/04 09:06:27;;;;;;;3.40;3.10;;;16.90;99.90;;;;;;5039787;28;20547;-79
2022/05/04 09:09:03;;;;;;;4.33;3.47;;;17.40;99.90;;;;;;5039876;28;20178;-80
2022/05/04 09:11:29;;;;;;;4.10;3.70;;;17.30;99.90;;;;;;5039599;28;20787;-80
2022/05/04 09:13:55;;;;;;;4.13;3.50;;;17.10;99.90;;;;;;5039315;28;20191;-80
2022/05/04 09:16:32;;;;;;;5.97;3.13;;;16.90;99.90;;;;;;5039516;28;20211;-80
2022/05/04 09:19:17;;;;;;;5.03;4.00;;;16.80;99.90;;;;;;5040986;28;20194;-80
2022/05/04 09:21:46;;;;;;;5.27;3.00;;;16.50;99.90;;;;;;5040665;28;20199;-80
2022/05/04 09:24:14;;;;;;;3.13;2.80;;;16.20;99.90;;;;;;5039248;28;20211;-80
2022/05/04 09:26:42;;;;;;;3.23;2.80;;;16.20;99.90;;;;;;5040674;28;20661;-80
2022/05/04 09:29:11;;;;;;;3.70;3.20;;;16.20;99.90;;;;;;5040342;28;20194;-80
2022/05/04 09:31:39;;;;;;;4.10;3.53;;;16.20;99.90;;;;;;5040030;28;20189;-79
2022/05/04 09:34:08;;;;;;;3.77;3.37;;;16.30;99.90;;;;;;5040340;28;20179;-80
2022/05/04 09:44:53;;;;;;;3.20;2.90;;;16.40;99.90;;;;;;5039520;28;20188;-80
2022/05/04 09:45:15;;;;;;;3.17;2.87;;;17.10;99.90;;;;;;5041944;28;20266;-80
2022/05/04 09:47:41;;;;;;;4.00;3.03;;;17.50;99.90;;;;;;5040779;28;20160;-80
2022/05/04 09:50:09;;;;;;;5.30;3.17;;;17.80;99.90;;;;;;5040127;28;20207;-80
2022/05/04 09:52:50;;;;;;;4.13;2.87;;;18.40;99.90;;;;;;5041238;28;20199;-80
2022/05/04 09:55:22;;;;;;;5.40;3.03;;;18.80;99.90;;;;;;5040974;28;20178;-80
2022/05/04 09:57:49;;;;;;;3.73;2.77;;;19.30;99.90;;;;;;5040805;28;20654;-80
2022/05/04 10:00:19;;;;;;;2.73;2.43;;;19.90;99.90;;;;;;5039059;28;20181;-80
2022/05/04 10:02:45;;;;;;;3.87;2.47;;;20.00;99.90;;;;;;5041601;28;20284;-80
2022/05/04 10:05:12;;;;;;;4.93;2.50;;;20.40;99.90;;;;;;5040126;28;20181;-80
2022/05/04 10:07:38;;;;;;;3.23;2.60;;;20.30;99.90;;;;;;5039735;28;20205;-81
2022/05/04 10:10:06;;;;;;;2.53;2.30;;;20.40;99.90;;;;;;5040182;28;20236;-78
2022/05/04 10:12:38;;;;;;;3.30;2.10;;;20.60;98.30;;;;;;5040077;28;20745;-79
2022/05/04 10:15:10;;;;;;;2.37;2.17;;;20.70;99.90;;;;;;5039039;28;20176;-79
2022/05/04 10:17:42;;;;;;;4.47;2.43;;;21.10;94.10;;;;;;5039983;28;20171;-78
2022/05/04 10:20:13;;;;;;;3.50;2.13;;;21.10;93.50;;;;;;5040367;28;20182;-78
2022/05/04 10:22:47;;;;;;;2.77;2.57;;;21.20;91.50;;;;;;5039278;28;20751;-78
2022/05/04 10:25:14;;;;;;;2.97;2.10;;;21.10;91.40;;;;;;5039402;28;20186;-81
2022/05/04 10:27:42;;;;;;;2.67;2.10;;;21.50;92.90;;;;;;5037471;28;20186;-79
2022/05/04 10:32:58;;;;;;;4.67;2.47;;;21.70;87.80;;;;;;5039433;28;20290;-78
2022/05/04 10:35:34;;;;;;;2.43;2.00;;;21.20;89.50;;;;;;5037183;28;20238;-81
2022/05/04 10:38:00;;;;;;;2.90;2.20;;;21.00;91.80;;;;;;5038589;28;20261;-79
2022/05/04 10:40:35;;;;;;;3.50;2.17;;;20.90;90.10;;;;;;5035874;28;20708;-80
2022/05/04 10:43:04;;;;;;;3.47;2.10;;;21.30;93.80;;;;;;5036935;28;20270;-78
2022/05/04 10:45:38;;;;;;;2.37;2.10;;;22.00;92.60;;;;;;5034792;28;20232;-79
2022/05/04 10:48:10;;;;;;;2.00;1.80;;;21.70;85.30;;;;;;5033915;28;20623;-79
2022/05/04 10:51:09;;;;;;;2.47;2.27;;;20.40;84.20;;;;;;5034324;28;20174;-79
2022/05/04 10:53:40;;;;;;;3.87;2.07;;;19.40;88.10;;;;;;5037402;28;20190;-81
2022/05/04 10:56:12;;;;;;;3.10;1.90;;;18.80;87.10;;;;;;5041167;28;20194;-81
2022/05/04 10:58:45;;;;;;;2.83;1.97;;;18.60;87.80;;;;;;5038505;28;20645;-81
2022/05/04 11:01:22;;;;;;;3.20;1.87;;;19.20;89.30;;;;;;5040074;28;20205;-80
2022/05/04 11:03:58;;;;;;;3.00;2.30;;;19.40;83.80;;;;;;5042155;28;20288;-79
2022/05/04 11:06:38;;;;;;;3.10;1.83;;;19.90;85.30;;;;;;5041746;28;20168;-82
2022/05/04 11:09:09;;;;;;;2.00;1.80;;;20.30;80.50;;;;;;5040970;28;20267;-81
2022/05/04 11:11:36;;;;;;;2.40;2.03;;;19.90;84.70;;;;;;5038845;28;20173;-79
2022/05/04 11:14:04;;;;;;;2.93;2.43;;;19.50;80.30;;;;;;5034828;28;20667;-76
2022/05/04 11:16:30;;;;;;;9.97;2.77;;;18.70;84.90;;;;;;5037507;28;20183;-79
2022/05/04 11:18:58;;;;;;;2.63;2.30;;;18.20;88.70;;;;;;5040154;28;20205;-79
2022/05/04 11:21:25;;;;;;;2.03;1.83;;;18.00;89.50;;;;;;5042373;28;20209;-80
2022/05/04 11:23:53;;;;;;;4.97;2.60;;;18.10;92.00;;;;;;5037825;28;20198;-81
2022/05/04 11:26:27;;;;;;;3.53;2.30;;;18.00;93.40;;;;;;5039111;28;20196;-78
2022/05/04 11:28:54;;;;;;;2.73;2.53;;;19.00;94.00;;;;;;5039329;28;20198;-78
2022/05/04 11:31:20;;;;;;;2.93;2.30;;;20.20;92.80;;;;;;5039772;28;20292;-78
2022/05/04 11:33:48;;;;;;;4.13;2.47;;;21.00;93.60;;;;;;5035661;28;20217;-77
2022/05/04 11:36:18;;;;;;;2.57;2.23;;;22.10;90.40;;;;;;5033491;28;20232;-77
2022/05/04 11:38:46;;;;;;;2.20;2.10;;;23.10;86.50;;;;;;5033148;28;20198;-77
2022/05/04 11:41:11;;;;;;;3.27;2.00;;;23.30;84.40;;;;;;5032836;28;20700;-77
2022/05/04 11:43:37;;;;;;;2.50;1.77;;;22.60;83.40;;;;;;5036559;28;20344;-77
2022/05/04 11:46:11;;;;;;;1.77;1.60;;;22.50;85.90;;;;;;5036413;28;20257;-77
2022/05/04 11:48:38;;;;;;;2.37;1.63;;;23.50;81.50;;;;;;5034435;28;20192;-77
2022/05/04 11:51:05;;;;;;;2.90;1.53;;;24.10;77.70;;;;;;5034456;28;20622;-77
2022/05/04 11:53:30;;;;;;;2.87;2.03;;;24.00;74.40;;;;;;5035749;28;20193;-77
2022/05/04 11:55:58;;;;;;;2.13;1.93;;;22.90;77.20;;;;;;5033217;28;20266;-77
2022/05/04 11:58:27;;;;;;;2.27;1.73;;;21.80;78.90;;;;;;5034112;28;20198;-78
2022/05/04 12:00:53;;;;;;;2.20;2.00;;;20.80;80.50;;;;;;5033981;28;20182;-77
2022/05/04 12:03:20;;;;;;;2.03;1.83;;;20.20;83.70;;;;;;5033889;28;20747;-77
2022/05/04 12:05:46;;;;;;;3.93;2.17;;;20.10;85.10;;;;;;5034343;28;20213;-77
2022/05/04 12:08:14;;;;;;;2.40;2.20;;;20.80;87.20;;;;;;5033950;28;20182;-77
2022/05/04 12:10:41;;;;;;;2.37;2.17;;;22.30;90.80;;;;;;5033369;28;20664;-76
2022/05/04 12:13:06;;;;;;;3.63;2.50;;;24.00;83.00;;;;;;5038067;28;20200;-77
2022/05/04 12:15:34;;;;;;;2.70;2.50;;;25.40;84.70;;;;;;5037769;28;20663;-77
2022/05/04 12:18:05;;;;;;;2.47;2.27;;;25.00;73.10;;;;;;5039831;28;20181;-77
2022/05/04 12:20:33;;;;;;;3.50;2.10;;;24.70;76.90;;;;;;5038798;28;20174;-77
2022/05/04 12:23:00;;;;;;;2.77;2.00;;;23.80;77.70;;;;;;5037594;28;20285;-77
2022/05/04 12:25:26;;;;;;;3.23;2.20;;;22.70;78.70;;;;;;5041270;28;20175;-78
2022/05/04 12:27:54;;;;;;;4.30;2.40;;;21.90;80.30;;;;;;5036980;28;20178;-77
2022/05/04 12:33:08;;;;;;;2.90;2.60;;;20.60;85.00;;;;;;5037049;28;20206;-77
2022/05/04 12:35:44;;;;;;;2.33;2.10;;;20.10;87.10;;;;;;5037570;28;20220;-78
2022/05/04 12:38:16;;;;;;;4.60;2.13;;;19.80;88.10;;;;;;5040942;28;20185;-77
2022/05/04 12:40:43;;;;;;;2.93;1.87;;;19.40;83.10;;;;;;5041357;28;20232;-81
2022/05/04 12:43:09;;;;;;;2.10;1.87;;;19.40;85.70;;;;;;5042581;28;20257;-79
2022/05/04 12:45:36;;;;;;;2.13;1.80;;;20.20;89.40;;;;;;5043372;28;20205;-79
2022/05/04 12:48:06;;;;;;;1.73;1.63;;;21.50;82.40;;;;;;5043075;28;20187;-79
2022/05/04 12:50:33;;;;;;;2.00;1.87;;;23.10;79.80;;;;;;5040709;28;20208;-78
2022/05/04 12:52:59;;;;;;;2.53;1.90;;;23.70;77.20;;;;;;5038728;28;20684;-78
2022/05/04 12:56:46;;;;;;;1.90;1.80;;;23.30;72.90;;;;;;5039826;28;20236;-78
2022/05/04 12:58:13;;;;;;;2.30;1.97;;;22.70;73.50;;;;;;5038901;28;20183;-78
2022/05/04 13:00:40;;;;;;;1.67;1.50;;;22.80;78.50;;;;;;5035958;28;20184;-77
2022/05/04 13:03:12;;;;;;;4.97;1.90;;;23.30;72.00;;;;;;5036715;28;20289;-78
2022/05/04 13:05:39;;;;;;;3.20;1.60;;;23.40;73.90;;;;;;5037075;28;20162;-79
2022/05/04 13:08:06;;;;;;;3.10;1.80;;;23.20;72.20;;;;;;5036553;28;20614;-77
2022/05/04 13:10:32;;;;;;;2.30;1.80;;;23.10;74.80;;;;;;5036672;28;20174;-77
2022/05/04 13:12:58;;;;;;;1.50;1.40;;;23.50;74.10;;;;;;5035377;28;20287;-77
2022/05/04 13:15:24;;;;;;;1.83;1.60;;;23.90;76.60;;;;;;5036688;28;20173;-77
2022/05/04 13:17:50;;;;;;;1.60;1.50;;;23.60;66.40;;;;;;5037427;28;20191;-78
2022/05/04 13:20:16;;;;;;;1.83;1.60;;;23.40;72.40;;;;;;5037117;28;20177;-78
2022/05/04 13:22:41;;;;;;;2.03;1.40;;;23.60;68.90;;;;;;5036406;28;20206;-78